Time;durP1;ratioP1;P1;durP2;ratioP2;P2;SDS_P1;SDS_P2;PMS_P1;PMS_P2;Temp;Humidity;BMP_temperature;BMP_pressure;BME280_temperature;BME280_humidity;BME280_pressure;Samples;Min_cycle;Max_cycle;Signal;HPM_P1;HPM_P2
2022/12/07 00:01:13;;;;;;;12.52;8.90;;;;;;;;;;4844462;29;20033;-93
2022/12/07 00:03:40;;;;;;;14.05;9.90;;;;;;;;;;4844743;29;20117;-91
2022/12/07 00:06:07;;;;;;;13.85;9.50;;;;;;;;;;4846450;29;20044;-92
2022/12/07 00:08:34;;;;;;;12.70;9.63;;;;;;;;;;4851469;29;20052;-91
2022/12/07 00:11:02;;;;;;;12.73;9.57;;;;;;;;;;4845723;29;20031;-93
2022/12/07 00:13:28;;;;;;;13.93;9.73;;;;;;;;;;4843970;29;20033;-93
2022/12/07 00:15:54;;;;;;;15.07;9.90;;;;;;;;;;4844490;29;20132;-93
2022/12/07 00:18:22;;;;;;;14.77;10.55;;;;;;;;;;4844581;29;20141;-94
2022/12/07 00:20:48;;;;;;;14.70;9.95;;;;;;;;;;4844185;29;20045;-93
2022/12/07 00:23:14;;;;;;;16.05;11.32;;;;;;;;;;4844406;29;20077;-93
2022/12/07 00:25:40;;;;;;;13.80;10.07;;;;;;;;;;4844720;29;20026;-94
2022/12/07 00:28:09;;;;;;;16.98;11.23;;;;;;;;;;4843977;29;20045;-94
2022/12/07 00:30:35;;;;;;;16.02;11.35;;;;;;;;;;4844229;29;20033;-94
2022/12/07 00:33:02;;;;;;;14.65;10.68;;;;;;;;;;4844302;29;20061;-93
2022/12/07 00:35:28;;;;;;;12.73;9.95;;;;;;;;;;4844401;29;20483;-93
2022/12/07 00:37:54;;;;;;;14.85;9.80;;;;;;;;;;4844101;29;20057;-93
2022/12/07 00:40:20;;;;;;;14.90;10.15;;;;;;;;;;4843881;29;20037;-93
2022/12/07 00:42:46;;;;;;;16.58;12.68;;;;;;;;;;4844079;29;20025;-93
2022/12/07 00:45:13;;;;;;;16.02;10.98;;;;;;;;;;4843990;29;20117;-93
2022/12/07 00:47:39;;;;;;;14.48;10.50;;;;;;;;;;4860554;29;20041;-94
2022/12/07 00:50:06;;;;;;;16.83;12.02;;;;;;;;;;4844502;29;20030;-93
2022/12/07 00:52:32;;;;;;;17.63;11.88;;;;;;;;;;4847801;29;20040;-92
2022/12/07 00:54:58;;;;;;;17.08;11.05;;;;;;;;;;4846132;29;20109;-93
2022/12/07 00:57:24;;;;;;;15.35;11.55;;;;;;;;;;4844052;29;20021;-93
2022/12/07 00:59:55;;;;;;;15.07;11.32;;;;;;;;;;4844122;29;20038;-92
2022/12/07 01:02:21;;;;;;;15.80;11.38;;;;;;;;;;4843536;29;20086;-92
2022/12/07 01:04:47;;;;;;;15.68;11.55;;;;;;;;;;4843670;29;20033;-93
2022/12/07 01:07:13;;;;;;;17.13;11.30;;;;;;;;;;4843543;29;20025;-94
2022/12/07 01:09:39;;;;;;;19.20;12.98;;;;;;;;;;4843642;29;20459;-93
2022/12/07 01:15:09;;;;;;;18.65;11.98;;;;;;;;;;4877223;23;20396;-94
2022/12/07 01:20:40;;;;;;;17.83;12.57;;;;;;;;;;4864488;29;20052;-93
2022/12/07 01:23:06;;;;;;;16.35;11.75;;;;;;;;;;4847535;29;20119;-93
2022/12/07 01:25:32;;;;;;;16.00;11.63;;;;;;;;;;4847353;29;20034;-93
2022/12/07 01:27:58;;;;;;;19.73;13.18;;;;;;;;;;4847632;29;20046;-95
2022/12/07 01:30:25;;;;;;;19.15;13.13;;;;;;;;;;4847652;29;20037;-92
2022/12/07 01:32:51;;;;;;;18.33;13.02;;;;;;;;;;4847315;29;20113;-93
2022/12/07 01:35:18;;;;;;;18.73;13.55;;;;;;;;;;4847347;29;20053;-93
2022/12/07 01:37:44;;;;;;;19.42;14.02;;;;;;;;;;4847030;29;20125;-93
2022/12/07 01:40:11;;;;;;;19.45;13.55;;;;;;;;;;4831721;29;20373;-94
2022/12/07 01:42:37;;;;;;;18.25;13.25;;;;;;;;;;4847119;29;20033;-93
2022/12/07 01:45:19;;;;;;;20.33;12.88;;;;;;;;;;4846854;29;20128;-93
2022/12/07 01:47:51;;;;;;;18.92;13.82;;;;;;;;;;4847104;29;20041;-92
2022/12/07 01:50:17;;;;;;;17.95;12.57;;;;;;;;;;4847101;29;20044;-94
2022/12/07 01:52:45;;;;;;;17.48;13.00;;;;;;;;;;4847264;29;20040;-93
2022/12/07 01:55:12;;;;;;;18.15;12.70;;;;;;;;;;4847372;29;20026;-94
2022/12/07 01:57:43;;;;;;;18.63;13.52;;;;;;;;;;4846911;29;20089;-95
2022/12/07 02:00:10;;;;;;;24.55;16.30;;;;;;;;;;4847331;29;20064;-94
2022/12/07 02:02:44;;;;;;;20.35;14.30;;;;;;;;;;4847317;29;20029;-93
2022/12/07 02:05:10;;;;;;;22.00;14.43;;;;;;;;;;4847147;29;20044;-91
2022/12/07 02:07:39;;;;;;;20.73;14.75;;;;;;;;;;4846572;29;20033;-93
2022/12/07 02:10:17;;;;;;;23.45;15.20;;;;;;;;;;4846996;29;20041;-91
2022/12/07 02:12:45;;;;;;;20.35;14.25;;;;;;;;;;4851887;29;20034;-91
2022/12/07 02:15:11;;;;;;;19.48;14.02;;;;;;;;;;4847858;29;20066;-94
2022/12/07 02:17:43;;;;;;;22.83;15.38;;;;;;;;;;4846577;29;20026;-94
2022/12/07 02:20:24;;;;;;;23.92;15.77;;;;;;;;;;4846251;29;20065;-93
2022/12/07 02:23:04;;;;;;;20.05;14.68;;;;;;;;;;4846113;29;20057;-94
2022/12/07 02:25:38;;;;;;;23.83;16.23;;;;;;;;;;4846057;29;20073;-93
2022/12/07 02:28:08;;;;;;;23.65;16.42;;;;;;;;;;4846302;29;20049;-94
2022/12/07 02:30:37;;;;;;;21.50;15.15;;;;;;;;;;4844874;29;20052;-94
2022/12/07 02:33:23;;;;;;;19.92;15.07;;;;;;;;;;4846187;29;20038;-93
2022/12/07 02:35:56;;;;;;;18.77;13.75;;;;;;;;;;4847140;29;20029;-93
2022/12/07 02:38:26;;;;;;;18.35;13.20;;;;;;;;;;4846587;29;20041;-93
2022/12/07 02:40:52;;;;;;;18.73;13.10;;;;;;;;;;4847010;29;20034;-95
2022/12/07 02:43:29;;;;;;;14.95;11.25;;;;;;;;;;4846205;29;20033;-94
2022/12/07 02:46:02;;;;;;;16.02;10.95;;;;;;;;;;4846568;29;20029;-96
2022/12/07 02:48:29;;;;;;;13.45;10.18;;;;;;;;;;4846923;29;20205;-93
2022/12/07 02:50:57;;;;;;;15.10;10.15;;;;;;;;;;4845658;29;20105;-94
2022/12/07 02:53:32;;;;;;;13.85;10.13;;;;;;;;;;4846785;29;20530;-94
2022/12/07 02:56:00;;;;;;;13.90;9.90;;;;;;;;;;4845679;29;20034;-92
2022/12/07 02:58:41;;;;;;;15.18;9.95;;;;;;;;;;4850739;29;20033;-94
2022/12/07 03:01:16;;;;;;;13.18;9.73;;;;;;;;;;4850265;29;20029;-94
2022/12/07 03:03:47;;;;;;;12.38;8.65;;;;;;;;;;4846306;29;20081;-93
2022/12/07 03:06:19;;;;;;;11.80;8.80;;;;;;;;;;4845193;29;20029;-93
2022/12/07 03:09:04;;;;;;;12.63;9.68;;;;;;;;;;4846127;29;20045;-93
2022/12/07 03:11:35;;;;;;;12.65;9.65;;;;;;;;;;4845556;29;20038;-94
2022/12/07 03:14:08;;;;;;;13.65;10.30;;;;;;;;;;4845672;29;20138;-94
2022/12/07 03:16:36;;;;;;;13.35;9.38;;;;;;;;;;4845299;29;20054;-93
2022/12/07 03:19:10;;;;;;;14.32;9.95;;;;;;;;;;4845066;29;20049;-93
2022/12/07 03:21:39;;;;;;;15.02;10.32;;;;;;;;;;4845271;29;20034;-94
2022/12/07 03:24:09;;;;;;;10.88;7.88;;;;;;;;;;4844813;29;20030;-94
2022/12/07 03:26:38;;;;;;;13.52;9.15;;;;;;;;;;4845578;29;20068;-91
2022/12/07 03:29:25;;;;;;;12.27;9.50;;;;;;;;;;4845288;29;20478;-91
2022/12/07 03:32:01;;;;;;;11.07;8.15;;;;;;;;;;4843958;29;20029;-93
2022/12/07 03:34:37;;;;;;;13.30;9.27;;;;;;;;;;4845392;29;20041;-92
2022/12/07 03:37:06;;;;;;;10.90;8.15;;;;;;;;;;4844988;29;20109;-92
2022/12/07 03:39:45;;;;;;;11.55;8.18;;;;;;;;;;4845267;29;20503;-94
2022/12/07 03:42:13;;;;;;;11.90;8.88;;;;;;;;;;4845234;29;20030;-93
2022/12/07 03:44:41;;;;;;;9.75;7.65;;;;;;;;;;4844643;29;20480;-94
2022/12/07 03:47:17;;;;;;;10.50;8.43;;;;;;;;;;4844599;29;20112;-93
2022/12/07 03:49:43;;;;;;;10.45;7.60;;;;;;;;;;4861267;29;20033;-93
2022/12/07 03:52:27;;;;;;;10.95;7.38;;;;;;;;;;4844929;29;20488;-93
2022/12/07 03:57:30;;;;;;;9.50;6.57;;;;;;;;;;5504179;23;19924;-93
2022/12/07 04:02:43;;;;;;;9.13;6.38;;;;;;;;;;5499653;23;20152;-92
2022/12/07 04:05:09;;;;;;;8.70;6.40;;;;;;;;;;4846466;29;20029;-92
2022/12/07 04:07:36;;;;;;;7.38;5.22;;;;;;;;;;4847017;29;20045;-93
2022/12/07 04:10:03;;;;;;;8.75;6.03;;;;;;;;;;4846396;29;20561;-94
2022/12/07 04:12:31;;;;;;;7.22;5.03;;;;;;;;;;4846168;29;20033;-94
2022/12/07 04:14:57;;;;;;;7.47;5.32;;;;;;;;;;4847155;29;20033;-92
2022/12/07 04:17:23;;;;;;;6.65;5.05;;;;;;;;;;4849773;29;20466;-92
2022/12/07 04:19:49;;;;;;;6.43;4.10;;;;;;;;;;4848291;29;20061;-92
2022/12/07 04:22:15;;;;;;;6.75;4.85;;;;;;;;;;4845902;29;20025;-91
2022/12/07 04:24:41;;;;;;;7.82;5.43;;;;;;;;;;4844895;29;20472;-93
2022/12/07 04:27:08;;;;;;;7.38;5.30;;;;;;;;;;4847920;29;20029;-94
2022/12/07 04:29:34;;;;;;;7.22;5.38;;;;;;;;;;4844186;29;20043;-93
2022/12/07 04:32:00;;;;;;;7.95;5.07;;;;;;;;;;4844403;29;20041;-94
2022/12/07 04:34:26;;;;;;;6.97;5.30;;;;;;;;;;4843955;29;20029;-94
2022/12/07 04:36:52;;;;;;;8.15;6.07;;;;;;;;;;4844741;29;20488;-94
2022/12/07 04:39:22;;;;;;;8.00;5.75;;;;;;;;;;4845143;29;20043;-93
2022/12/07 04:41:48;;;;;;;8.80;5.50;;;;;;;;;;4845654;29;20030;-94
2022/12/07 04:44:15;;;;;;;6.88;4.93;;;;;;;;;;4845864;29;20076;-92
2022/12/07 04:46:43;;;;;;;6.55;4.53;;;;;;;;;;4848147;29;20038;-94
2022/12/07 04:49:09;;;;;;;6.18;4.63;;;;;;;;;;4846490;29;20046;-93
2022/12/07 04:51:36;;;;;;;6.93;5.05;;;;;;;;;;4845633;29;20489;-94
2022/12/07 04:54:02;;;;;;;5.85;4.38;;;;;;;;;;4845786;29;20057;-94
2022/12/07 04:56:28;;;;;;;7.22;4.80;;;;;;;;;;4845974;29;20085;-94
2022/12/07 04:58:55;;;;;;;6.50;4.82;;;;;;;;;;4845829;29;20041;-92
2022/12/07 05:01:22;;;;;;;6.82;4.60;;;;;;;;;;4847423;29;20038;-93
2022/12/07 05:03:48;;;;;;;7.57;5.38;;;;;;;;;;4851610;29;20049;-92
2022/12/07 05:06:15;;;;;;;6.90;4.72;;;;;;;;;;4853747;29;20026;-91
2022/12/07 05:08:41;;;;;;;5.65;4.38;;;;;;;;;;4847506;29;20512;-93
2022/12/07 05:11:08;;;;;;;6.40;4.40;;;;;;;;;;4846269;29;20044;-94
2022/12/07 05:13:35;;;;;;;6.25;4.15;;;;;;;;;;4845767;29;20033;-93
2022/12/07 05:16:01;;;;;;;6.32;4.70;;;;;;;;;;4845554;29;20041;-93
2022/12/07 05:18:28;;;;;;;5.82;4.32;;;;;;;;;;4846101;29;20086;-94
2022/12/07 05:20:54;;;;;;;6.72;4.95;;;;;;;;;;4845881;29;20116;-93
2022/12/07 05:23:20;;;;;;;7.25;5.30;;;;;;;;;;4845612;29;20030;-93
2022/12/07 05:25:47;;;;;;;7.13;4.90;;;;;;;;;;4845988;29;20087;-93
2022/12/07 05:28:13;;;;;;;6.03;4.25;;;;;;;;;;4845347;29;20133;-92
2022/12/07 05:30:39;;;;;;;6.43;4.68;;;;;;;;;;4844817;29;20021;-92
2022/12/07 05:33:05;;;;;;;6.22;4.47;;;;;;;;;;4876895;29;20033;-94
2022/12/07 05:35:31;;;;;;;5.60;4.60;;;;;;;;;;4876391;29;20129;-93
2022/12/07 05:37:58;;;;;;;6.05;4.60;;;;;;;;;;4876786;29;20361;-92
2022/12/07 05:40:24;;;;;;;6.45;4.40;;;;;;;;;;4875984;29;20026;-92
2022/12/07 05:42:50;;;;;;;7.30;5.53;;;;;;;;;;4845262;29;20391;-92
2022/12/07 05:45:16;;;;;;;6.63;5.15;;;;;;;;;;4876283;29;20029;-92
2022/12/07 05:47:42;;;;;;;6.93;5.32;;;;;;;;;;4876106;29;20034;-95
2022/12/07 05:50:08;;;;;;;8.20;5.75;;;;;;;;;;4876467;29;20057;-93
2022/12/07 05:52:35;;;;;;;9.90;6.40;;;;;;;;;;4876235;29;20032;-93
2022/12/07 05:55:01;;;;;;;8.88;6.00;;;;;;;;;;4876449;29;20066;-94
2022/12/07 05:57:27;;;;;;;9.75;5.93;;;;;;;;;;4876156;29;20093;-94
2022/12/07 05:59:53;;;;;;;8.38;6.05;;;;;;;;;;4876292;29;20494;-94
2022/12/07 06:02:19;;;;;;;8.32;6.20;;;;;;;;;;4876044;29;20107;-93
2022/12/07 06:04:47;;;;;;;8.70;6.72;;;;;;;;;;4878646;29;20486;-93
2022/12/07 06:07:14;;;;;;;11.33;7.53;;;;;;;;;;4879609;29;20026;-94
2022/12/07 06:09:41;;;;;;;12.00;8.45;;;;;;;;;;4880794;29;20033;-92
2022/12/07 06:14:52;;;;;;;11.82;8.73;;;;;;;;;;4865884;29;20084;-93
2022/12/07 06:17:18;;;;;;;11.75;8.80;;;;;;;;;;4879541;29;20025;-95
2022/12/07 06:19:44;;;;;;;12.10;8.27;;;;;;;;;;4883326;29;20616;-91
2022/12/07 06:22:11;;;;;;;12.80;9.32;;;;;;;;;;4883477;29;20498;-94
2022/12/07 06:24:38;;;;;;;14.57;9.50;;;;;;;;;;4873887;29;20040;-92
2022/12/07 06:38:51;;;;;;;17.48;12.82;;;;;;;;;;4870678;29;20032;-91
2022/12/07 06:46:28;;;;;;;21.50;15.63;;;;;;;;;;4866936;23;20108;-93
2022/12/07 06:48:54;;;;;;;18.83;13.40;;;;;;;;;;4846948;29;20045;-91
2022/12/07 06:51:21;;;;;;;21.23;14.95;;;;;;;;;;4842978;29;20022;-91
2022/12/07 06:53:47;;;;;;;22.30;15.90;;;;;;;;;;4846308;29;20395;-92
2022/12/07 06:56:13;;;;;;;22.75;16.35;;;;;;;;;;4845216;29;20147;-92
2022/12/07 06:58:40;;;;;;;22.30;16.42;;;;;;;;;;4830500;29;20034;-91
2022/12/07 07:01:10;;;;;;;24.05;15.75;;;;;;;;;;4862179;29;20397;-93
2022/12/07 07:03:36;;;;;;;19.33;14.20;;;;;;;;;;4847875;29;20060;-93
2022/12/07 07:06:07;;;;;;;22.05;15.40;;;;;;;;;;4851437;29;20037;-95
2022/12/07 07:08:33;;;;;;;21.23;15.25;;;;;;;;;;4846416;29;20041;-93
2022/12/07 07:10:59;;;;;;;24.60;15.85;;;;;;;;;;4849761;29;20032;-93
2022/12/07 07:13:26;;;;;;;19.23;14.07;;;;;;;;;;4857791;29;20060;-93
2022/12/07 07:15:52;;;;;;;20.10;14.48;;;;;;;;;;4854905;29;20539;-93
2022/12/07 07:18:21;;;;;;;18.92;13.20;;;;;;;;;;4852444;29;20040;-94
2022/12/07 07:20:48;;;;;;;20.38;14.95;;;;;;;;;;4863437;29;20042;-94
2022/12/07 07:23:14;;;;;;;19.30;14.02;;;;;;;;;;4851953;29;20040;-93
2022/12/07 07:25:40;;;;;;;17.50;13.30;;;;;;;;;;4838743;29;20034;-91
2022/12/07 07:28:06;;;;;;;19.00;13.00;;;;;;;;;;4849623;29;20121;-94
2022/12/07 07:30:33;;;;;;;19.15;13.18;;;;;;;;;;4848652;29;20040;-94
2022/12/07 07:33:03;;;;;;;17.25;13.40;;;;;;;;;;4865210;29;20033;-93
2022/12/07 07:35:31;;;;;;;20.48;14.07;;;;;;;;;;4851136;29;20033;-93
2022/12/07 07:37:58;;;;;;;18.48;13.35;;;;;;;;;;4847300;29;20409;-92
2022/12/07 07:40:25;;;;;;;20.33;14.20;;;;;;;;;;4846637;29;20147;-92
2022/12/07 07:42:55;;;;;;;17.15;13.00;;;;;;;;;;4847022;29;20048;-93
2022/12/07 07:45:22;;;;;;;19.90;13.48;;;;;;;;;;4848413;29;20045;-91
2022/12/07 07:47:48;;;;;;;20.13;14.45;;;;;;;;;;4847247;29;20056;-91
2022/12/07 07:50:15;;;;;;;19.98;14.27;;;;;;;;;;4846195;29;20120;-91
2022/12/07 07:52:42;;;;;;;23.38;15.85;;;;;;;;;;4846933;29;20033;-92
2022/12/07 07:55:08;;;;;;;23.67;15.38;;;;;;;;;;4846873;29;20030;-93
2022/12/07 07:57:39;;;;;;;29.00;17.50;;;;;;;;;;4846869;29;20090;-91
2022/12/07 08:00:06;;;;;;;30.50;16.83;;;;;;;;;;4848192;29;20029;-92
2022/12/07 08:02:32;;;;;;;30.83;17.92;;;;;;;;;;4846630;29;20033;-92
2022/12/07 08:04:58;;;;;;;29.58;16.70;;;;;;;;;;4846578;29;20077;-94
2022/12/07 08:07:24;;;;;;;22.35;15.00;;;;;;;;;;4846240;29;20030;-93
2022/12/07 08:09:51;;;;;;;19.67;13.40;;;;;;;;;;4846599;29;20034;-92
2022/12/07 08:12:17;;;;;;;19.98;13.90;;;;;;;;;;4846538;29;20057;-93
2022/12/07 08:14:43;;;;;;;18.90;12.85;;;;;;;;;;4846526;29;20029;-92
2022/12/07 08:17:09;;;;;;;20.20;13.90;;;;;;;;;;4846046;29;20443;-92
2022/12/07 08:19:35;;;;;;;17.83;12.48;;;;;;;;;;4848206;29;20443;-95
2022/12/07 08:24:55;;;;;;;16.98;11.88;;;;;;;;;;4868796;29;20036;-96
2022/12/07 08:27:26;;;;;;;15.43;10.32;;;;;;;;;;4847280;29;20045;-93
2022/12/07 08:29:52;;;;;;;15.27;10.88;;;;;;;;;;4862901;29;20041;-94
2022/12/07 08:32:24;;;;;;;16.92;11.75;;;;;;;;;;4848026;29;20528;-93
2022/12/07 08:34:53;;;;;;;17.67;12.57;;;;;;;;;;4848551;29;20033;-93
2022/12/07 08:37:19;;;;;;;16.63;11.48;;;;;;;;;;4846484;29;20032;-92
2022/12/07 08:39:54;;;;;;;19.80;12.70;;;;;;;;;;4846422;29;20033;-91
2022/12/07 08:42:22;;;;;;;15.88;11.25;;;;;;;;;;4846668;29;20093;-93
2022/12/07 08:44:48;;;;;;;18.00;11.55;;;;;;;;;;4843294;29;20081;-92
2022/12/07 08:47:15;;;;;;;14.65;10.45;;;;;;;;;;4843720;29;20764;-91
2022/12/07 08:49:42;;;;;;;14.23;9.45;;;;;;;;;;4843589;29;20034;-93
2022/12/07 08:52:08;;;;;;;12.60;9.52;;;;;;;;;;4844221;29;20109;-93
2022/12/07 08:54:45;;;;;;;12.65;9.38;;;;;;;;;;4847561;29;20037;-93
2022/12/07 08:57:16;;;;;;;14.23;9.85;;;;;;;;;;4847151;29;20480;-93
2022/12/07 09:00:02;;;;;;;13.30;9.07;;;;;;;;;;4849559;29;20057;-92
2022/12/07 09:02:30;;;;;;;11.05;8.80;;;;;;;;;;4849978;29;20029;-93
2022/12/07 09:05:00;;;;;;;13.77;9.93;;;;;;;;;;4848511;29;20105;-95
2022/12/07 09:08:02;;;;;;;15.43;9.85;;;;;;;;;;4842558;29;20069;-93
2022/12/07 09:10:29;;;;;;;12.88;9.40;;;;;;;;;;4840566;29;20057;-92
2022/12/07 09:12:55;;;;;;;13.82;10.18;;;;;;;;;;4866429;29;20433;-93
2022/12/07 09:15:21;;;;;;;25.30;17.85;;;;;;;;;;4845472;29;20033;-92
2022/12/07 09:20:51;;;;;;;16.95;12.80;;;;;;;;;;4863382;23;20057;-93
2022/12/07 09:26:25;;;;;;;14.75;10.38;;;;;;;;;;4895663;23;20132;-92
2022/12/07 09:28:51;;;;;;;14.55;10.07;;;;;;;;;;4876405;29;20128;-94
2022/12/07 09:31:25;;;;;;;15.10;11.23;;;;;;;;;;4876432;29;20033;-94
2022/12/07 09:33:55;;;;;;;14.68;11.35;;;;;;;;;;4874261;29;20032;-93
2022/12/07 09:36:21;;;;;;;15.35;10.75;;;;;;;;;;4867180;29;20124;-91
2022/12/07 09:39:02;;;;;;;;;;;;;;;;;;;;;
2022/12/07 09:41:42;;;;;;;;;;;;;;;;;;;;;
2022/12/07 09:44:28;;;;;;;13.88;9.57;;;;;;;;;;4891154;29;20104;-95
2022/12/07 09:46:59;;;;;;;14.00;10.43;;;;;;;;;;4875460;29;20066;-95
2022/12/07 09:49:28;;;;;;;15.20;10.82;;;;;;;;;;4875766;29;20113;-93
2022/12/07 09:52:13;;;;;;;14.43;10.25;;;;;;;;;;4872179;29;20033;-91
2022/12/07 09:54:42;;;;;;;15.45;10.57;;;;;;;;;;4857881;29;20037;-93
2022/12/07 09:57:09;;;;;;;13.48;10.50;;;;;;;;;;4881285;29;20033;-92
2022/12/07 09:59:40;;;;;;;17.48;11.55;;;;;;;;;;4882885;29;20053;-94
2022/12/07 10:02:29;;;;;;;15.10;11.55;;;;;;;;;;4883301;29;20040;-94
2022/12/07 10:04:57;;;;;;;19.98;12.82;;;;;;;;;;4880268;29;20029;-91
2022/12/07 10:07:24;;;;;;;17.73;11.93;;;;;;;;;;4881827;29;20026;-92
2022/12/07 10:09:50;;;;;;;14.68;10.15;;;;;;;;;;4882963;29;20041;-92
2022/12/07 10:12:16;;;;;;;13.68;10.23;;;;;;;;;;4882814;29;20026;-94
2022/12/07 10:14:55;;;;;;;13.13;9.48;;;;;;;;;;4888054;29;20038;-90
2022/12/07 10:17:30;;;;;;;15.27;10.23;;;;;;;;;;4885256;29;20029;-90
2022/12/07 10:20:21;;;;;;;19.95;13.25;;;;;;;;;;4889740;29;20025;-92
2022/12/07 10:23:06;;;;;;;17.52;11.00;;;;;;;;;;4897367;29;20105;-88
2022/12/07 10:25:40;;;;;;;23.23;12.90;;;;;;;;;;4897710;29;20033;-92
2022/12/07 10:28:09;;;;;;;28.13;15.93;;;;;;;;;;4877001;29;20042;-93
2022/12/07 10:30:56;;;;;;;20.75;12.80;;;;;;;;;;4862780;29;20065;-90
2022/12/07 10:33:31;;;;;;;20.17;12.68;;;;;;;;;;4865645;29;20123;-91
2022/12/07 10:36:02;;;;;;;11.55;7.82;;;;;;;;;;4864582;29;20030;-93
2022/12/07 10:38:32;;;;;;;19.25;12.40;;;;;;;;;;4864224;29;20029;-93
2022/12/07 10:41:10;;;;;;;15.18;9.77;;;;;;;;;;4862297;29;20041;-94
2022/12/07 10:43:37;;;;;;;15.63;10.85;;;;;;;;;;4849598;29;20062;-92
2022/12/07 10:46:16;;;;;;;12.15;8.13;;;;;;;;;;4864850;29;20081;-92
2022/12/07 10:48:48;;;;;;;9.43;7.57;;;;;;;;;;4864404;29;20057;-93
2022/12/07 10:51:14;;;;;;;9.98;7.30;;;;;;;;;;4861974;29;20018;-92
2022/12/07 10:54:18;;;;;;;10.48;7.35;;;;;;;;;;4863197;29;20490;-91
2022/12/07 10:57:03;;;;;;;11.15;7.88;;;;;;;;;;4896328;29;20033;-93
2022/12/07 10:59:42;;;;;;;12.57;7.65;;;;;;;;;;4895479;29;20098;-93
2022/12/07 11:02:08;;;;;;;10.57;8.15;;;;;;;;;;4895611;29;20034;-91
2022/12/07 11:04:40;;;;;;;9.52;7.20;;;;;;;;;;4893758;29;20021;-92
2022/12/07 11:07:35;;;;;;;9.30;6.65;;;;;;;;;;4894660;29;20045;-92
2022/12/07 11:10:22;;;;;;;8.93;5.45;;;;;;;;;;4863128;29;20058;-91
2022/12/07 11:13:03;;;;;;;9.13;7.35;;;;;;;;;;4893592;29;20038;-92
2022/12/07 11:15:37;;;;;;;8.52;6.03;;;;;;;;;;4886302;29;20045;-94
2022/12/07 11:18:03;;;;;;;9.30;6.90;;;;;;;;;;4890242;29;20026;-93
2022/12/07 11:20:48;;;;;;;7.90;5.93;;;;;;;;;;4857504;29;20026;-92
2022/12/07 11:23:21;;;;;;;9.77;6.53;;;;;;;;;;4860835;29;20046;-93
2022/12/07 11:25:56;;;;;;;7.90;5.20;;;;;;;;;;4899322;23;20036;-90
2022/12/07 11:28:22;;;;;;;7.47;4.90;;;;;;;;;;4863543;29;20097;-89
2022/12/07 11:30:54;;;;;;;5.95;4.25;;;;;;;;;;4863784;29;20026;-92
2022/12/07 11:33:29;;;;;;;6.05;4.72;;;;;;;;;;4860943;29;20120;-90
2022/12/07 11:36:07;;;;;;;5.18;4.00;;;;;;;;;;4864781;29;20034;-92
2022/12/07 11:38:33;;;;;;;5.60;4.50;;;;;;;;;;4865237;29;20037;-91
2022/12/07 11:41:19;;;;;;;4.85;4.15;;;;;;;;;;4888937;23;20071;-91
2022/12/07 11:44:00;;;;;;;7.03;4.07;;;;;;;;;;4864023;29;20033;-93
2022/12/07 11:46:35;;;;;;;6.68;4.30;;;;;;;;;;5040102;23;20050;-89
2022/12/07 11:51:36;;;;;;;6.88;4.53;;;;;;;;;;4940096;23;20076;-92
2022/12/07 11:54:32;;;;;;;7.68;5.45;;;;;;;;;;4864462;29;20013;-95
2022/12/07 11:59:42;;;;;;;8.95;5.90;;;;;;;;;;4872962;29;20118;-94
2022/12/07 12:02:23;;;;;;;9.48;6.47;;;;;;;;;;4873386;29;20029;-91
2022/12/07 12:07:27;;;;;;;6.35;4.43;;;;;;;;;;5602594;23;19935;-92
2022/12/07 12:13:15;;;;;;;7.63;5.60;;;;;;;;;;5559454;23;20146;-93
2022/12/07 12:16:03;;;;;;;5.57;4.18;;;;;;;;;;4837238;29;20173;-91
2022/12/07 12:19:14;;;;;;;6.30;4.22;;;;;;;;;;4835003;29;20041;-91
2022/12/07 12:21:40;;;;;;;5.47;4.00;;;;;;;;;;4811514;29;20042;-91
2022/12/07 12:24:16;;;;;;;5.05;3.67;;;;;;;;;;4796392;29;20119;-91
2022/12/07 12:26:49;;;;;;;5.85;3.50;;;;;;;;;;4818292;29;20046;-91
2022/12/07 12:29:29;;;;;;;4.20;3.05;;;;;;;;;;4833372;29;20171;-90
2022/12/07 12:32:15;;;;;;;4.75;3.60;;;;;;;;;;4834007;29;20030;-92
2022/12/07 12:34:58;;;;;;;4.18;2.92;;;;;;;;;;4842242;29;20034;-91
2022/12/07 12:37:33;;;;;;;4.75;3.10;;;;;;;;;;4843273;29;20036;-90
2022/12/07 12:40:14;;;;;;;3.50;2.90;;;;;;;;;;4835538;29;20038;-93
2022/12/07 12:42:51;;;;;;;4.40;3.10;;;;;;;;;;4832787;29;20026;-94
2022/12/07 12:45:26;;;;;;;4.68;3.28;;;;;;;;;;4833038;29;20034;-91
2022/12/07 12:47:54;;;;;;;3.33;2.47;;;;;;;;;;4832666;29;20060;-92
2022/12/07 12:50:21;;;;;;;3.83;2.70;;;;;;;;;;4836074;29;20053;-93
2022/12/07 12:53:17;;;;;;;4.75;3.60;;;;;;;;;;4836180;29;20101;-91
2022/12/07 12:55:43;;;;;;;4.70;3.40;;;;;;;;;;4828892;29;20151;-91
2022/12/07 12:58:38;;;;;;;5.53;3.20;;;;;;;;;;4835325;29;20026;-93
2022/12/07 13:01:23;;;;;;;4.72;3.30;;;;;;;;;;4814246;29;20053;-94
2022/12/07 13:03:53;;;;;;;5.45;3.00;;;;;;;;;;4827858;29;20030;-91
2022/12/07 13:06:26;;;;;;;4.78;3.25;;;;;;;;;;4828912;29;20038;-92
2022/12/07 13:08:57;;;;;;;6.60;3.23;;;;;;;;;;4832792;29;20046;-92
2022/12/07 13:11:32;;;;;;;4.93;3.28;;;;;;;;;;4831755;29;20377;-93
2022/12/07 13:14:17;;;;;;;4.32;3.00;;;;;;;;;;4831528;29;20572;-90
2022/12/07 13:16:43;;;;;;;4.90;3.30;;;;;;;;;;4843671;29;20034;-92
2022/12/07 13:19:48;;;;;;;4.95;3.35;;;;;;;;;;4853717;29;20076;-90
2022/12/07 13:22:37;;;;;;;4.97;3.20;;;;;;;;;;4795069;29;20168;-92
2022/12/07 13:25:14;;;;;;;5.57;3.72;;;;;;;;;;4803615;29;20042;-92
2022/12/07 13:27:45;;;;;;;6.10;4.18;;;;;;;;;;4805716;29;20041;-95
2022/12/07 13:30:22;;;;;;;6.50;4.50;;;;;;;;;;4830588;29;20069;-92
2022/12/07 13:33:08;;;;;;;6.63;4.15;;;;;;;;;;4815995;29;20030;-96
2022/12/07 13:35:37;;;;;;;4.60;3.40;;;;;;;;;;4817080;29;20097;-93
2022/12/07 13:38:05;;;;;;;5.20;3.90;;;;;;;;;;4819828;29;20034;-94
2022/12/07 13:40:32;;;;;;;6.40;4.30;;;;;;;;;;4816492;29;20030;-93
2022/12/07 13:43:00;;;;;;;5.75;3.38;;;;;;;;;;4823605;29;20038;-92
2022/12/07 13:48:47;;;;;;;6.47;3.30;;;;;;;;;;4848750;29;20452;-92
2022/12/07 13:51:18;;;;;;;5.40;3.70;;;;;;;;;;4836068;29;20427;-93
2022/12/07 13:56:56;;;;;;;5.95;4.30;;;;;;;;;;4852988;29;20041;-94
2022/12/07 13:59:26;;;;;;;5.50;3.22;;;;;;;;;;4830020;29;20029;-91
2022/12/07 14:01:54;;;;;;;6.15;3.00;;;;;;;;;;4829680;29;20133;-93
2022/12/07 14:04:33;;;;;;;4.22;2.75;;;;;;;;;;4834291;29;20101;-93
2022/12/07 14:10:05;;;;;;;4.80;3.10;;;;;;;;;;4853350;29;20133;-95
2022/12/07 14:12:44;;;;;;;5.38;3.70;;;;;;;;;;4859041;29;20065;-95
2022/12/07 14:15:20;;;;;;;4.95;3.25;;;;;;;;;;4855525;29;20054;-93
2022/12/07 14:25:58;;;;;;;5.07;3.50;;;;;;;;;;4885356;29;20049;-93
2022/12/07 14:28:55;;;;;;;6.38;3.10;;;;;;;;;;4875083;29;20056;-93
2022/12/07 14:31:24;;;;;;;5.53;2.92;;;;;;;;;;4896464;29;20036;-95
2022/12/07 14:33:50;;;;;;;4.38;2.63;;;;;;;;;;4878800;29;20025;-92
2022/12/07 14:36:22;;;;;;;4.85;2.30;;;;;;;;;;4857747;29;20034;-94
2022/12/07 14:38:49;;;;;;;7.13;3.42;;;;;;;;;;4868924;29;20119;-94
2022/12/07 14:44:11;;;;;;;9.15;5.28;;;;;;;;;;4867359;29;20052;-94
2022/12/07 14:46:37;;;;;;;7.53;3.70;;;;;;;;;;4852954;29;20021;-93
2022/12/07 14:49:05;;;;;;;5.70;3.58;;;;;;;;;;4868527;29;20037;-92
2022/12/07 14:51:32;;;;;;;7.43;3.70;;;;;;;;;;4834420;29;20044;-93
2022/12/07 15:02:42;;;;;;;10.63;5.15;;;;;;;;;;5384049;23;20081;-93
2022/12/07 15:05:08;;;;;;;9.18;5.05;;;;;;;;;;4878841;29;20030;-92
2022/12/07 15:07:34;;;;;;;11.80;5.32;;;;;;;;;;4878723;29;20082;-92
2022/12/07 15:10:00;;;;;;;14.32;5.93;;;;;;;;;;4879775;29;20033;-93
2022/12/07 15:12:26;;;;;;;20.55;7.47;;;;;;;;;;4869486;29;20483;-91
2022/12/07 15:14:55;;;;;;;16.33;7.13;;;;;;;;;;4848468;29;20026;-92
2022/12/07 15:17:21;;;;;;;10.68;4.63;;;;;;;;;;4847850;29;20040;-93
2022/12/07 15:22:32;;;;;;;6.72;3.40;;;;;;;;;;4864076;29;20121;-92
2022/12/07 15:24:58;;;;;;;6.53;3.63;;;;;;;;;;4846601;29;20026;-91
2022/12/07 15:27:24;;;;;;;9.68;3.80;;;;;;;;;;4853870;29;20025;-91
2022/12/07 15:29:51;;;;;;;7.00;3.50;;;;;;;;;;4863718;29;20048;-92
2022/12/07 15:32:17;;;;;;;7.78;3.72;;;;;;;;;;4863962;29;20033;-89
2022/12/07 15:34:44;;;;;;;7.07;4.45;;;;;;;;;;4880690;29;20097;-92
2022/12/07 15:37:11;;;;;;;8.10;5.03;;;;;;;;;;4865099;29;20169;-92
2022/12/07 15:39:37;;;;;;;7.55;5.30;;;;;;;;;;4867749;29;20041;-92
2022/12/07 15:42:04;;;;;;;9.93;6.65;;;;;;;;;;4883193;29;20036;-91
2022/12/07 15:47:17;;;;;;;9.52;6.20;;;;;;;;;;4883100;29;20035;-93
2022/12/07 15:49:46;;;;;;;11.10;6.40;;;;;;;;;;4867455;29;20124;-92
2022/12/07 15:52:12;;;;;;;10.48;6.55;;;;;;;;;;4865925;29;20096;-93
2022/12/07 15:54:39;;;;;;;15.10;8.25;;;;;;;;;;4865390;29;20033;-93
2022/12/07 15:57:08;;;;;;;19.17;8.73;;;;;;;;;;4865879;29;20037;-93
2022/12/07 15:59:34;;;;;;;14.85;8.13;;;;;;;;;;4869309;29;20029;-92
2022/12/07 16:02:03;;;;;;;13.95;6.72;;;;;;;;;;4865210;29;20045;-94
2022/12/07 16:04:29;;;;;;;9.30;5.75;;;;;;;;;;4862678;29;20388;-92
2022/12/07 16:06:56;;;;;;;9.32;5.97;;;;;;;;;;4863094;29;20025;-91
2022/12/07 16:09:22;;;;;;;9.63;6.32;;;;;;;;;;4863341;29;20041;-94
2022/12/07 16:11:50;;;;;;;11.10;7.53;;;;;;;;;;4864065;29;20055;-92
2022/12/07 16:14:26;;;;;;;10.93;7.50;;;;;;;;;;4867282;29;20033;-93
2022/12/07 16:17:16;;;;;;;13.10;7.38;;;;;;;;;;4876653;29;20045;-94